Time;durP1;ratioP1;P1;durP2;ratioP2;P2;SDS_P1;SDS_P2;PMS_P1;PMS_P2;Temp;Humidity;BMP_temperature;BMP_pressure;BME280_temperature;BME280_humidity;BME280_pressure;Samples;Min_cycle;Max_cycle;Signal;HPM_P1;HPM_P2
2022/11/18 00:01:32;;;;;;;32.45;20.60;;;1.60;99.90;;;;;;5041730;28;20051;-56
2022/11/18 00:03:58;;;;;;;33.35;21.33;;;1.60;99.90;;;;;;5047473;28;20532;-54
2022/11/18 00:06:26;;;;;;;33.70;21.13;;;1.60;99.90;;;;;;5045588;28;20045;-54
2022/11/18 00:08:52;;;;;;;31.20;20.02;;;1.50;99.90;;;;;;5051921;28;20036;-54
2022/11/18 00:14:22;;;;;;;32.13;19.60;;;1.50;99.90;;;;;;5045297;28;20715;-55
2022/11/18 00:16:56;;;;;;;34.92;20.88;;;1.40;99.90;;;;;;5026170;28;20029;-56
2022/11/18 00:19:24;;;;;;;37.58;20.88;;;1.40;99.90;;;;;;5056936;28;20113;-56
2022/11/18 00:21:50;;;;;;;32.10;20.80;;;1.40;99.90;;;;;;5050330;28;20032;-56
2022/11/18 00:24:16;;;;;;;32.83;20.80;;;1.40;99.90;;;;;;5050114;28;20025;-57
2022/11/18 00:26:41;;;;;;;36.65;21.85;;;1.30;99.90;;;;;;5040353;28;20042;-55
2022/11/18 00:29:11;;;;;;;36.33;20.50;;;1.30;99.90;;;;;;5044587;28;20037;-58
2022/11/18 00:31:37;;;;;;;33.45;21.08;;;1.30;99.90;;;;;;5050890;28;20233;-56
2022/11/18 00:34:02;;;;;;;36.92;21.83;;;1.30;99.90;;;;;;5047491;28;20491;-58
2022/11/18 00:36:28;;;;;;;31.92;20.33;;;1.20;99.90;;;;;;5046728;28;20033;-55
2022/11/18 00:38:54;;;;;;;34.78;21.63;;;1.20;99.90;;;;;;5057481;28;20052;-57
2022/11/18 00:41:20;;;;;;;32.55;19.95;;;1.10;99.90;;;;;;5047927;28;20057;-57
2022/11/18 00:43:45;;;;;;;35.80;21.25;;;1.10;99.90;;;;;;5046735;28;20051;-54
2022/11/18 00:46:12;;;;;;;34.80;22.00;;;1.10;99.90;;;;;;5048529;28;20839;-56
2022/11/18 00:48:38;;;;;;;34.83;21.70;;;1.10;99.90;;;;;;5050269;28;20040;-59
2022/11/18 00:51:13;;;;;;;33.22;20.75;;;1.10;99.90;;;;;;5035827;28;20037;-55
2022/11/18 00:53:39;;;;;;;34.78;21.50;;;1.10;99.90;;;;;;5048013;28;20110;-57
2022/11/18 00:56:05;;;;;;;35.25;22.13;;;1.00;99.90;;;;;;5050712;28;20128;-57
2022/11/18 00:58:31;;;;;;;34.42;21.55;;;1.00;99.90;;;;;;5050683;28;20503;-58
2022/11/18 01:00:56;;;;;;;39.50;23.15;;;1.00;99.90;;;;;;5053062;28;20025;-56
2022/11/18 01:03:23;;;;;;;35.33;20.98;;;1.00;99.90;;;;;;5068750;28;20043;-56
2022/11/18 01:05:48;;;;;;;39.78;22.63;;;1.00;99.90;;;;;;5048069;28;20024;-55
2022/11/18 01:08:14;;;;;;;36.30;21.63;;;1.00;99.90;;;;;;5070035;28;20041;-56
2022/11/18 01:10:40;;;;;;;33.45;20.77;;;1.00;99.90;;;;;;5056273;28;20033;-56
2022/11/18 01:13:19;;;;;;;34.03;21.42;;;1.00;99.90;;;;;;5049897;28;20443;-53
2022/11/18 01:15:50;;;;;;;38.67;23.35;;;1.00;99.90;;;;;;5038957;28;20021;-56
2022/11/18 01:18:17;;;;;;;37.80;23.23;;;1.00;99.90;;;;;;5038279;28;20025;-57
2022/11/18 01:20:43;;;;;;;35.92;21.98;;;1.00;99.90;;;;;;5068042;28;20395;-57
2022/11/18 01:23:09;;;;;;;37.40;22.95;;;1.00;99.90;;;;;;5050714;28;20496;-55
2022/11/18 01:25:36;;;;;;;34.63;21.88;;;1.00;99.90;;;;;;5056017;28;20041;-56
2022/11/18 01:28:02;;;;;;;35.25;22.20;;;1.00;99.90;;;;;;5056879;28;20098;-57
2022/11/18 01:30:28;;;;;;;37.03;23.13;;;1.00;99.90;;;;;;5049559;28;20033;-55
2022/11/18 01:32:53;;;;;;;34.67;21.50;;;1.00;99.90;;;;;;5051496;28;20032;-57
2022/11/18 01:35:19;;;;;;;36.25;21.83;;;1.00;99.90;;;;;;5068660;28;20107;-55
2022/11/18 01:37:45;;;;;;;34.92;21.92;;;1.00;99.90;;;;;;5071439;28;20041;-57
2022/11/18 01:40:11;;;;;;;32.10;20.13;;;1.00;99.90;;;;;;5053907;28;20048;-55
2022/11/18 01:42:37;;;;;;;36.78;21.48;;;1.00;99.90;;;;;;5070380;28;20043;-57
2022/11/18 01:45:20;;;;;;;33.78;20.27;;;1.00;99.90;;;;;;5049679;28;20520;-56
2022/11/18 01:47:57;;;;;;;34.95;21.92;;;1.00;99.90;;;;;;5031803;28;20025;-56
2022/11/18 01:50:24;;;;;;;37.15;20.00;;;1.00;99.90;;;;;;5043114;28;20024;-57
2022/11/18 01:52:53;;;;;;;34.38;20.20;;;1.00;99.90;;;;;;5072987;28;20028;-54
2022/11/18 01:55:24;;;;;;;32.47;20.27;;;1.00;99.90;;;;;;5056408;28;20022;-59
2022/11/18 01:57:55;;;;;;;36.47;21.50;;;1.10;99.90;;;;;;5071347;28;20029;-57
2022/11/18 02:00:21;;;;;;;32.63;20.85;;;1.00;99.90;;;;;;5030470;28;20029;-57
2022/11/18 02:02:47;;;;;;;37.67;22.58;;;1.00;99.90;;;;;;5069440;28;20029;-57
2022/11/18 02:05:14;;;;;;;33.92;21.08;;;1.00;99.90;;;;;;5050553;28;20079;-60
2022/11/18 02:07:41;;;;;;;36.55;22.23;;;1.00;99.90;;;;;;5068769;28;20504;-54
2022/11/18 02:10:20;;;;;;;37.85;22.40;;;1.00;99.90;;;;;;5053137;28;20028;-56
2022/11/18 02:12:45;;;;;;;32.30;20.58;;;1.00;99.90;;;;;;5068899;28;20172;-56
2022/11/18 02:15:11;;;;;;;34.88;22.23;;;1.00;99.90;;;;;;5053310;28;20513;-53
2022/11/18 02:17:37;;;;;;;37.85;22.73;;;1.00;99.90;;;;;;5070073;28;20392;-56
2022/11/18 02:20:05;;;;;;;32.72;19.77;;;0.90;99.90;;;;;;5052281;28;20032;-55
2022/11/18 02:23:12;;;;;;;37.75;21.77;;;0.90;99.90;;;;;;5070505;28;20060;-56
2022/11/18 02:26:28;;;;;;;34.80;22.27;;;1.00;99.90;;;;;;5045144;28;20086;-55
2022/11/18 02:29:20;;;;;;;35.75;21.83;;;0.90;99.90;;;;;;5028089;28;20498;-56
2022/11/18 02:31:48;;;;;;;34.75;22.08;;;0.90;99.90;;;;;;5046185;28;20124;-56
2022/11/18 02:34:16;;;;;;;35.75;22.00;;;0.90;99.90;;;;;;5069942;28;20036;-54
2022/11/18 02:36:45;;;;;;;34.50;21.23;;;1.00;99.90;;;;;;5055636;28;20029;-54
2022/11/18 02:39:28;;;;;;;35.50;22.15;;;0.90;99.90;;;;;;5049924;28;20087;-54
2022/11/18 02:41:56;;;;;;;36.80;23.42;;;0.90;99.90;;;;;;5067947;28;20035;-53
2022/11/18 02:44:24;;;;;;;36.08;22.65;;;0.90;99.90;;;;;;5049980;28;20489;-54
2022/11/18 02:46:54;;;;;;;38.38;23.70;;;0.90;99.90;;;;;;5067767;28;20028;-54
2022/11/18 02:49:33;;;;;;;33.97;22.13;;;0.90;99.90;;;;;;5050114;28;20037;-50
2022/11/18 02:52:00;;;;;;;37.60;22.77;;;0.90;99.90;;;;;;5050999;28;20580;-49
2022/11/18 02:54:27;;;;;;;36.15;22.83;;;0.90;99.90;;;;;;5050145;28;20036;-52
2022/11/18 02:56:53;;;;;;;36.38;23.52;;;0.90;99.90;;;;;;5067290;28;20021;-52
2022/11/18 02:59:27;;;;;;;38.83;24.17;;;0.80;99.90;;;;;;5050180;28;20500;-54
2022/11/18 03:01:52;;;;;;;37.05;22.65;;;0.80;99.90;;;;;;5047599;28;20033;-50
2022/11/18 03:04:19;;;;;;;35.35;21.42;;;0.80;99.90;;;;;;5068866;28;20131;-51
2022/11/18 03:07:16;;;;;;;35.20;22.05;;;0.80;99.90;;;;;;5048247;28;20037;-55
2022/11/18 03:09:44;;;;;;;39.05;23.40;;;0.80;99.90;;;;;;5066821;28;20028;-53
2022/11/18 03:12:14;;;;;;;38.28;23.70;;;0.80;99.90;;;;;;5069561;28;20076;-51
2022/11/18 03:15:10;;;;;;;41.10;24.35;;;0.70;99.90;;;;;;5029845;28;20079;-54
2022/11/18 03:18:13;;;;;;;40.20;23.27;;;0.80;99.90;;;;;;5069540;28;20032;-53
2022/11/18 03:21:05;;;;;;;37.72;23.48;;;0.70;99.90;;;;;;5057693;28;20103;-53
2022/11/18 03:23:37;;;;;;;36.15;22.95;;;0.70;99.90;;;;;;5029485;28;20025;-54
2022/11/18 03:26:12;;;;;;;42.58;24.20;;;0.70;99.90;;;;;;5040502;28;20043;-47
2022/11/18 03:28:44;;;;;;;38.40;22.80;;;0.60;99.90;;;;;;5023067;28;20030;-45
2022/11/18 03:31:29;;;;;;;40.72;24.40;;;0.60;99.90;;;;;;5041617;28;20613;-46
2022/11/18 03:34:02;;;;;;;43.22;24.05;;;0.60;99.90;;;;;;5069087;28;20552;-44
2022/11/18 03:36:32;;;;;;;41.55;25.05;;;0.60;99.90;;;;;;5043939;28;20021;-46
2022/11/18 03:39:02;;;;;;;44.55;25.13;;;0.60;99.90;;;;;;5028913;28;20045;-47
2022/11/18 03:41:30;;;;;;;37.35;22.40;;;0.50;99.90;;;;;;5050678;28;20106;-45
2022/11/18 03:44:00;;;;;;;43.05;24.33;;;0.50;99.90;;;;;;5068630;28;20090;-44
2022/11/18 03:46:37;;;;;;;41.95;23.88;;;0.50;99.90;;;;;;5043380;28;20044;-48
2022/11/18 03:49:05;;;;;;;45.30;25.90;;;0.50;99.90;;;;;;5029281;28;20482;-44
2022/11/18 03:51:37;;;;;;;44.45;24.30;;;0.50;99.90;;;;;;5049772;28;20028;-49
2022/11/18 03:54:10;;;;;;;41.63;23.20;;;0.50;99.90;;;;;;5029003;28;20026;-48
2022/11/18 03:56:42;;;;;;;51.42;26.60;;;0.50;99.90;;;;;;5044745;28;20033;-51
2022/11/18 03:59:25;;;;;;;48.25;26.48;;;0.50;99.90;;;;;;5028871;28;20040;-52
2022/11/18 04:01:55;;;;;;;46.97;27.05;;;0.50;99.90;;;;;;5046655;28;20124;-51
2022/11/18 04:04:23;;;;;;;48.78;27.83;;;0.40;99.90;;;;;;5028895;28;20486;-54
2022/11/18 04:07:02;;;;;;;51.53;28.27;;;0.50;99.90;;;;;;5050659;28;20396;-48
2022/11/18 04:09:32;;;;;;;51.00;27.98;;;0.40;99.90;;;;;;5068788;28;20615;-51
2022/11/18 04:12:03;;;;;;;51.78;29.05;;;0.40;99.90;;;;;;5034025;28;20057;-52
2022/11/18 04:14:37;;;;;;;52.85;28.83;;;0.40;99.90;;;;;;5048764;28;20060;-49
2022/11/18 04:17:25;;;;;;;53.17;28.20;;;0.40;99.90;;;;;;5058623;28;20056;-51
2022/11/18 04:19:50;;;;;;;51.50;28.48;;;0.40;99.90;;;;;;5028949;28;20330;-51
2022/11/18 04:22:18;;;;;;;55.58;29.65;;;0.30;99.90;;;;;;5055720;28;20756;-51
2022/11/18 04:24:43;;;;;;;57.72;29.92;;;0.30;99.90;;;;;;5067930;28;20706;-53
2022/11/18 04:27:09;;;;;;;57.90;29.58;;;0.30;99.90;;;;;;5044359;28;20094;-54
2022/11/18 04:29:34;;;;;;;54.40;29.23;;;0.20;99.90;;;;;;5067738;28;20055;-47
2022/11/18 04:32:01;;;;;;;57.72;31.33;;;0.20;99.90;;;;;;5047052;28;20084;-51
2022/11/18 04:34:27;;;;;;;57.78;32.08;;;0.20;99.90;;;;;;5048498;28;20052;-51
2022/11/18 04:36:52;;;;;;;56.00;30.08;;;0.30;99.90;;;;;;5059413;28;20029;-53
2022/11/18 04:39:18;;;;;;;56.10;28.85;;;0.20;99.90;;;;;;5049476;28;20029;-50
2022/11/18 04:41:56;;;;;;;57.97;31.02;;;0.30;99.90;;;;;;5061313;28;20028;-52
2022/11/18 04:44:30;;;;;;;62.30;31.48;;;0.30;99.90;;;;;;5048344;28;20032;-54
2022/11/18 04:46:58;;;;;;;61.10;30.95;;;0.30;99.90;;;;;;5059217;28;20028;-53
2022/11/18 04:49:25;;;;;;;58.22;31.33;;;0.30;99.90;;;;;;5048294;28;20029;-52
2022/11/18 04:51:51;;;;;;;59.63;30.48;;;0.30;99.90;;;;;;5059928;28;20610;-49
2022/11/18 04:54:18;;;;;;;57.20;30.48;;;0.20;99.90;;;;;;5048366;28;20099;-49
2022/11/18 04:56:44;;;;;;;59.60;31.38;;;0.20;99.90;;;;;;5060524;28;20021;-56
2022/11/18 04:59:11;;;;;;;54.70;28.60;;;0.20;99.90;;;;;;5048359;28;20051;-54
2022/11/18 05:01:37;;;;;;;58.78;29.15;;;0.20;99.90;;;;;;5061543;28;20013;-49
2022/11/18 05:04:04;;;;;;;56.53;29.60;;;0.20;99.90;;;;;;5045324;28;20029;-51
2022/11/18 05:06:30;;;;;;;57.28;29.77;;;0.10;99.90;;;;;;5067589;28;20033;-51
2022/11/18 05:08:59;;;;;;;53.40;27.85;;;0.20;99.90;;;;;;5046357;28;20041;-52
2022/11/18 05:14:11;;;;;;;54.78;28.35;;;0.10;99.90;;;;;;5051740;28;20035;-52
2022/11/18 05:16:36;;;;;;;53.45;27.15;;;0.20;99.90;;;;;;5047559;28;20033;-54
2022/11/18 05:19:03;;;;;;;50.70;25.88;;;0.10;99.90;;;;;;5047143;28;20527;-50
2022/11/18 05:21:29;;;;;;;50.65;26.50;;;0.10;99.90;;;;;;5067211;28;20037;-49
2022/11/18 05:23:54;;;;;;;48.08;26.25;;;0.00;99.90;;;;;;5046764;28;20033;-53
2022/11/18 05:26:20;;;;;;;47.70;25.70;;;0.00;99.90;;;;;;5065152;28;20040;-49
2022/11/18 05:28:45;;;;;;;41.63;24.35;;;0.00;99.90;;;;;;5043646;28;20040;-48
2022/11/18 05:31:13;;;;;;;44.45;24.15;;;0.00;99.90;;;;;;5048049;28;20339;-48
2022/11/18 05:33:39;;;;;;;42.15;24.70;;;0.10;99.90;;;;;;5050169;28;20095;-53
2022/11/18 05:36:13;;;;;;;39.95;23.02;;;0.10;99.90;;;;;;5067388;28;20027;-52
2022/11/18 05:38:39;;;;;;;41.05;21.75;;;0.10;99.90;;;;;;5042786;28;20450;-54
2022/11/18 05:41:06;;;;;;;41.10;21.70;;;0.10;99.90;;;;;;5070586;28;20053;-48
2022/11/18 05:43:32;;;;;;;39.17;22.95;;;0.00;99.90;;;;;;5049929;28;20045;-51
2022/11/18 05:45:58;;;;;;;39.50;22.95;;;0.00;99.90;;;;;;5068470;28;20082;-49
2022/11/18 05:48:24;;;;;;;44.65;22.77;;;0.00;99.90;;;;;;5055841;28;20042;-51
2022/11/18 05:50:52;;;;;;;41.17;23.13;;;0.00;99.90;;;;;;5070739;28;20032;-48
2022/11/18 05:53:20;;;;;;;35.70;20.38;;;-0.10;99.90;;;;;;5049916;28;20599;-49
2022/11/18 05:56:09;;;;;;;40.58;23.85;;;-0.10;99.90;;;;;;5070670;28;20085;-52
2022/11/18 05:58:34;;;;;;;36.45;20.70;;;-0.10;99.90;;;;;;5044138;28;20033;-50
2022/11/18 06:01:03;;;;;;;40.30;22.33;;;0.00;99.90;;;;;;5070293;28;20385;-48
2022/11/18 06:03:32;;;;;;;39.13;21.85;;;-0.10;99.90;;;;;;5049381;28;20195;-51
2022/11/18 06:06:00;;;;;;;37.72;22.65;;;-0.20;99.90;;;;;;5068636;28;20025;-48
2022/11/18 06:08:32;;;;;;;39.72;21.42;;;-0.20;99.90;;;;;;5071058;28;20052;-48
2022/11/18 06:10:58;;;;;;;37.25;19.63;;;-0.20;99.90;;;;;;5040263;28;20032;-50
2022/11/18 06:13:29;;;;;;;37.88;21.35;;;-0.30;99.90;;;;;;5050270;28;20025;-49
2022/11/18 06:15:55;;;;;;;38.35;21.52;;;-0.30;99.90;;;;;;5030178;28;20037;-51
2022/11/18 06:18:27;;;;;;;39.10;21.67;;;-0.20;99.90;;;;;;5070414;28;20032;-48
2022/11/18 06:20:56;;;;;;;39.00;21.13;;;-0.30;99.90;;;;;;5029707;28;20033;-47
2022/11/18 06:23:22;;;;;;;38.83;21.90;;;-0.30;99.90;;;;;;5070321;28;20017;-50
2022/11/18 06:25:48;;;;;;;38.30;21.58;;;-0.30;99.90;;;;;;5050682;28;20400;-48
2022/11/18 06:28:15;;;;;;;35.17;19.73;;;-0.30;99.90;;;;;;5045128;28;20033;-50
2022/11/18 06:30:41;;;;;;;35.90;20.13;;;-0.30;99.90;;;;;;5069724;28;20503;-51
2022/11/18 06:33:07;;;;;;;38.55;20.98;;;-0.20;99.90;;;;;;5048966;28;20091;-51
2022/11/18 06:35:33;;;;;;;35.97;20.00;;;-0.30;99.90;;;;;;5069254;28;20079;-54
2022/11/18 06:37:58;;;;;;;37.58;20.15;;;-0.20;99.90;;;;;;5048674;28;20051;-54
2022/11/18 06:40:24;;;;;;;35.58;19.65;;;-0.30;99.90;;;;;;5058368;28;20067;-50
2022/11/18 06:45:33;;;;;;;39.50;21.65;;;-0.30;99.90;;;;;;5030240;28;20059;-49
2022/11/18 06:47:59;;;;;;;38.65;20.75;;;-0.30;99.90;;;;;;5048796;28;20477;-54
2022/11/18 06:50:26;;;;;;;39.17;21.67;;;-0.30;99.90;;;;;;5069064;28;20036;-46
2022/11/18 06:52:52;;;;;;;37.08;20.42;;;-0.30;99.90;;;;;;5048498;28;20086;-49
2022/11/18 06:55:18;;;;;;;37.72;21.33;;;-0.30;99.90;;;;;;5068816;28;20021;-47
2022/11/18 06:57:43;;;;;;;38.75;20.10;;;-0.30;99.90;;;;;;5048544;28;20036;-49
2022/11/18 07:00:10;;;;;;;38.05;21.20;;;-0.30;99.90;;;;;;5068870;28;20040;-50
2022/11/18 07:02:35;;;;;;;37.00;20.52;;;-0.30;99.90;;;;;;5053496;28;20025;-47
2022/11/18 07:05:02;;;;;;;40.85;21.90;;;-0.40;99.90;;;;;;5069525;28;20734;-53
2022/11/18 07:07:27;;;;;;;39.20;21.58;;;-0.30;99.90;;;;;;5054232;28;20632;-49
2022/11/18 07:09:52;;;;;;;41.00;22.02;;;-0.30;99.90;;;;;;5069784;28;20107;-50
2022/11/18 07:12:18;;;;;;;40.80;22.65;;;-0.30;99.90;;;;;;5052763;28;20111;-52
2022/11/18 07:14:44;;;;;;;39.75;22.50;;;-0.30;99.90;;;;;;5069890;28;20036;-52
2022/11/18 07:17:09;;;;;;;39.28;20.33;;;-0.30;99.90;;;;;;5051431;28;20021;-50
2022/11/18 07:19:34;;;;;;;36.95;21.10;;;-0.20;99.90;;;;;;5069555;28;20029;-46
2022/11/18 07:22:00;;;;;;;35.95;21.05;;;-0.30;99.90;;;;;;5050400;28;20477;-49
2022/11/18 07:24:25;;;;;;;39.03;20.75;;;-0.30;99.90;;;;;;5069470;28;20028;-48
2022/11/18 07:26:54;;;;;;;38.15;20.20;;;-0.30;99.90;;;;;;5048445;28;20052;-46
2022/11/18 07:29:19;;;;;;;37.60;20.15;;;-0.30;99.90;;;;;;5049157;28;20032;-51
2022/11/18 07:31:45;;;;;;;34.42;19.65;;;-0.30;99.90;;;;;;5066498;28;20028;-53
2022/11/18 07:34:11;;;;;;;39.38;21.08;;;-0.30;99.90;;;;;;5069558;28;20393;-47
2022/11/18 07:36:37;;;;;;;32.00;19.67;;;-0.30;99.90;;;;;;5049251;28;20475;-44
2022/11/18 07:39:05;;;;;;;39.75;19.88;;;-0.30;99.90;;;;;;5047023;28;20037;-43
2022/11/18 07:41:31;;;;;;;34.67;19.40;;;-0.30;99.90;;;;;;5068516;28;20726;-51
2022/11/18 07:43:59;;;;;;;36.60;19.77;;;-0.30;99.90;;;;;;5047813;28;20033;-42
2022/11/18 07:46:29;;;;;;;41.92;21.17;;;-0.30;99.90;;;;;;5068344;28;20041;-42
2022/11/18 07:48:57;;;;;;;32.35;19.27;;;-0.30;99.90;;;;;;5047339;28;20033;-45
2022/11/18 07:51:25;;;;;;;37.35;20.65;;;-0.30;99.90;;;;;;5068289;28;20032;-41
2022/11/18 07:53:50;;;;;;;36.22;19.75;;;-0.30;99.90;;;;;;5047372;28;20029;-41
2022/11/18 07:56:16;;;;;;;36.97;22.48;;;-0.30;99.90;;;;;;5068005;28;20591;-41
2022/11/18 07:58:43;;;;;;;35.35;20.63;;;-0.30;99.90;;;;;;5047417;28;20103;-41
2022/11/18 08:01:11;;;;;;;34.90;20.17;;;-0.30;99.90;;;;;;5067739;28;20684;-42
2022/11/18 08:03:37;;;;;;;36.85;19.55;;;-0.30;99.90;;;;;;5047115;28;20566;-42
2022/11/18 08:06:05;;;;;;;41.10;20.52;;;-0.30;99.90;;;;;;5067885;28;20451;-45
2022/11/18 08:08:31;;;;;;;36.90;19.20;;;-0.30;99.90;;;;;;5047024;28;20033;-41
2022/11/18 08:10:57;;;;;;;35.95;19.80;;;-0.30;99.90;;;;;;5067889;28;20085;-43
2022/11/18 08:13:24;;;;;;;31.25;17.88;;;-0.40;99.90;;;;;;5046858;28;20524;-47
2022/11/18 08:15:49;;;;;;;38.47;20.48;;;-0.50;99.90;;;;;;5068015;28;20132;-42
2022/11/18 08:18:15;;;;;;;32.72;17.27;;;-0.50;99.90;;;;;;5047314;28;20136;-42
2022/11/18 08:20:40;;;;;;;33.88;18.27;;;-0.60;99.90;;;;;;5067492;28;20093;-44
2022/11/18 08:23:06;;;;;;;34.03;19.92;;;-0.60;99.90;;;;;;5047193;28;20443;-44
2022/11/18 08:25:31;;;;;;;35.90;20.20;;;-0.60;99.90;;;;;;5067581;28;20036;-43
2022/11/18 08:27:57;;;;;;;35.83;20.83;;;-0.60;99.90;;;;;;5051692;28;20541;-42
2022/11/18 08:30:22;;;;;;;35.53;18.98;;;-0.60;99.90;;;;;;5048911;28;20390;-44
2022/11/18 08:32:48;;;;;;;37.15;21.00;;;-0.50;99.90;;;;;;5065443;28;20099;-45
2022/11/18 08:35:13;;;;;;;34.58;19.60;;;-0.50;99.90;;;;;;5048816;28;20041;-47
2022/11/18 08:37:39;;;;;;;35.58;20.50;;;-0.60;99.90;;;;;;5065735;28;20091;-44
2022/11/18 08:40:05;;;;;;;35.50;19.73;;;-0.50;99.90;;;;;;5059944;28;20053;-42
2022/11/18 08:42:30;;;;;;;32.70;20.13;;;-0.50;99.90;;;;;;5065714;28;20033;-44
2022/11/18 08:44:56;;;;;;;35.28;19.77;;;-0.40;99.90;;;;;;5068185;28;20032;-42
2022/11/18 08:47:21;;;;;;;33.33;20.02;;;-0.40;99.90;;;;;;5051647;28;20021;-42
2022/11/18 08:49:47;;;;;;;34.80;19.92;;;-0.40;99.90;;;;;;5068298;28;20059;-44
2022/11/18 08:52:12;;;;;;;36.03;19.48;;;-0.40;99.90;;;;;;5050643;28;20029;-43
2022/11/18 08:54:38;;;;;;;33.67;18.10;;;-0.40;99.90;;;;;;5068019;28;20035;-46
2022/11/18 08:57:04;;;;;;;36.83;18.60;;;-0.40;99.90;;;;;;5049412;28;20183;-46
2022/11/18 08:59:29;;;;;;;31.60;16.85;;;-0.40;99.90;;;;;;5067964;28;20032;-45
2022/11/18 09:01:55;;;;;;;28.42;16.08;;;-0.40;99.90;;;;;;5048163;28;20120;-44
2022/11/18 09:04:20;;;;;;;26.40;14.95;;;-0.40;99.90;;;;;;5068059;28;20029;-44
2022/11/18 09:06:46;;;;;;;29.60;16.23;;;-0.40;99.90;;;;;;5046596;28;20135;-44
2022/11/18 09:09:11;;;;;;;27.05;16.05;;;-0.30;99.90;;;;;;5068093;28;20032;-43
2022/11/18 09:11:38;;;;;;;25.33;14.20;;;-0.40;99.90;;;;;;5048236;28;20317;-48
2022/11/18 09:14:04;;;;;;;24.83;13.85;;;-0.30;99.90;;;;;;5048929;28;20067;-45
2022/11/18 09:16:32;;;;;;;22.08;12.27;;;-0.30;99.90;;;;;;5071202;28;20031;-43
2022/11/18 09:18:58;;;;;;;19.98;11.68;;;-0.30;99.90;;;;;;5050311;28;20513;-43
2022/11/18 09:21:25;;;;;;;21.27;12.70;;;-0.30;99.90;;;;;;5071002;28;20032;-42
2022/11/18 09:23:50;;;;;;;20.88;11.93;;;-0.30;99.90;;;;;;5050372;28;20028;-42
2022/11/18 09:26:19;;;;;;;20.85;11.80;;;-0.30;99.90;;;;;;5068668;28;20032;-50
2022/11/18 09:28:45;;;;;;;19.83;10.95;;;-0.20;99.90;;;;;;5049639;28;20060;-43
2022/11/18 09:31:14;;;;;;;18.23;10.52;;;-0.30;99.90;;;;;;5070974;28;20117;-48
2022/11/18 09:33:39;;;;;;;16.38;9.55;;;-0.30;99.90;;;;;;5049836;28;20029;-48
2022/11/18 09:36:14;;;;;;;19.40;10.77;;;-0.30;99.90;;;;;;5069475;28;20040;-47
2022/11/18 09:38:41;;;;;;;17.50;10.10;;;-0.40;99.90;;;;;;5045919;28;20028;-43
2022/11/18 09:41:32;;;;;;;17.83;10.60;;;-0.30;99.90;;;;;;5070775;28;20044;-43
2022/11/18 09:44:25;;;;;;;15.57;9.32;;;-0.40;99.90;;;;;;5048390;28;20025;-47
2022/11/18 09:47:25;;;;;;;16.15;9.00;;;-0.40;99.90;;;;;;5031612;28;20420;-46
2022/11/18 09:49:54;;;;;;;16.05;9.18;;;-0.30;99.90;;;;;;5071350;28;20036;-47
2022/11/18 09:52:30;;;;;;;14.93;9.10;;;-0.30;99.90;;;;;;5054500;28;20401;-48
2022/11/18 09:54:58;;;;;;;12.10;8.82;;;-0.30;99.90;;;;;;5071238;28;20463;-46
2022/11/18 09:57:30;;;;;;;14.65;9.25;;;-0.40;99.90;;;;;;5054960;28;20094;-42
2022/11/18 09:59:57;;;;;;;14.82;9.27;;;-0.30;99.90;;;;;;5071361;28;20028;-47
2022/11/18 10:02:40;;;;;;;14.82;8.52;;;-0.40;99.90;;;;;;5054513;28;20028;-46
2022/11/18 10:05:22;;;;;;;14.63;9.02;;;-0.50;99.90;;;;;;5070916;28;20082;-53
2022/11/18 10:08:10;;;;;;;16.30;8.50;;;-0.50;99.90;;;;;;5047038;28;20065;-49
2022/11/18 10:10:45;;;;;;;14.38;8.98;;;-0.40;99.90;;;;;;5031147;28;20022;-49
2022/11/18 10:13:20;;;;;;;16.00;9.00;;;-0.40;99.90;;;;;;5054321;28;20033;-47
2022/11/18 10:15:57;;;;;;;14.32;9.55;;;-0.40;99.90;;;;;;5029621;28;20416;-45
2022/11/18 10:18:43;;;;;;;17.08;8.95;;;-0.30;99.90;;;;;;5041545;28;20489;-49
2022/11/18 10:21:39;;;;;;;15.70;9.50;;;-0.40;99.90;;;;;;5030896;28;20033;-45
2022/11/18 10:24:20;;;;;;;13.00;8.70;;;-0.30;99.90;;;;;;5047986;28;20147;-52
2022/11/18 10:26:46;;;;;;;17.67;9.63;;;-0.30;99.90;;;;;;5034375;28;20103;-51
2022/11/18 10:29:12;;;;;;;13.98;8.60;;;-0.30;99.90;;;;;;5050834;28;20108;-49
2022/11/18 10:31:51;;;;;;;15.57;10.13;;;-0.30;99.90;;;;;;5069674;28;20484;-47
2022/11/18 10:34:18;;;;;;;16.35;9.88;;;-0.20;99.90;;;;;;5030625;28;20105;-49
2022/11/18 10:36:57;;;;;;;16.30;9.68;;;-0.20;99.90;;;;;;5083089;28;20435;-44
2022/11/18 10:39:23;;;;;;;14.15;8.98;;;-0.10;99.90;;;;;;5067983;28;20045;-49
2022/11/18 10:41:52;;;;;;;14.38;8.55;;;-0.10;99.90;;;;;;5049217;28;20036;-44
2022/11/18 10:44:32;;;;;;;16.30;8.82;;;0.00;99.90;;;;;;5070277;28;20120;-44
2022/11/18 10:47:28;;;;;;;14.43;8.35;;;0.00;99.90;;;;;;5049307;28;20033;-44
2022/11/18 10:49:56;;;;;;;13.93;8.10;;;0.10;99.90;;;;;;5069071;28;20575;-47
2022/11/18 10:52:22;;;;;;;17.08;9.68;;;0.10;99.90;;;;;;5053839;28;20032;-46
2022/11/18 10:55:08;;;;;;;17.55;9.88;;;0.10;99.90;;;;;;5070217;28;20032;-45
2022/11/18 10:57:38;;;;;;;11.55;7.38;;;0.10;99.90;;;;;;5055809;28;20070;-45
2022/11/18 11:00:04;;;;;;;13.95;8.73;;;0.10;99.90;;;;;;5070304;28;20032;-45
2022/11/18 11:02:39;;;;;;;13.80;8.82;;;0.20;99.90;;;;;;5048525;28;20539;-44
2022/11/18 11:05:25;;;;;;;13.43;8.82;;;0.20;99.90;;;;;;5068088;28;20496;-45
2022/11/18 11:08:19;;;;;;;12.43;8.52;;;0.30;99.90;;;;;;5049915;28;20025;-43
2022/11/18 11:10:56;;;;;;;13.88;8.80;;;0.40;99.90;;;;;;5047900;28;20671;-45
2022/11/18 11:13:28;;;;;;;14.70;8.45;;;0.40;99.40;;;;;;5041168;28;20013;-44
2022/11/18 11:15:58;;;;;;;15.57;9.38;;;0.30;98.20;;;;;;5057520;28;20021;-47
2022/11/18 11:18:40;;;;;;;15.82;8.43;;;0.30;97.70;;;;;;5053953;28;20090;-44
2022/11/18 11:21:12;;;;;;;14.90;8.77;;;0.30;96.90;;;;;;5068361;28;20117;-44
2022/11/18 11:23:38;;;;;;;12.23;7.65;;;0.40;97.10;;;;;;5056072;28;20028;-50
2022/11/18 11:26:44;;;;;;;14.18;8.95;;;0.40;96.30;;;;;;5048803;28;20040;-44
2022/11/18 11:29:23;;;;;;;13.63;8.30;;;0.40;96.00;;;;;;5053961;28;20024;-45
2022/11/18 11:32:16;;;;;;;13.27;7.80;;;0.40;97.20;;;;;;5028498;28;20064;-47
2022/11/18 11:34:46;;;;;;;14.10;8.23;;;0.50;97.40;;;;;;5042872;28;20388;-45
2022/11/18 11:37:39;;;;;;;11.48;7.50;;;0.50;94.90;;;;;;5067333;28;20031;-52
2022/11/18 11:40:35;;;;;;;14.02;8.43;;;0.40;94.20;;;;;;5047748;28;20462;-52
2022/11/18 11:43:34;;;;;;;12.13;7.13;;;0.40;93.50;;;;;;5028299;28;20120;-49
2022/11/18 11:46:25;;;;;;;12.40;7.82;;;0.50;94.10;;;;;;5048352;28;20044;-48
2022/11/18 11:49:17;;;;;;;12.73;7.93;;;0.60;93.10;;;;;;5027775;28;20036;-51
2022/11/18 11:52:04;;;;;;;13.13;7.95;;;0.70;92.20;;;;;;5047938;28;20103;-48
2022/11/18 11:54:30;;;;;;;11.50;7.30;;;0.60;90.50;;;;;;5028074;28;20029;-47
2022/11/18 11:57:09;;;;;;;12.98;7.50;;;0.50;91.00;;;;;;5046385;28;20029;-51
2022/11/18 12:00:00;;;;;;;12.98;7.32;;;0.50;90.80;;;;;;5028776;28;20049;-48
2022/11/18 12:02:34;;;;;;;12.93;7.65;;;0.50;90.80;;;;;;5028995;28;20083;-49
2022/11/18 12:05:10;;;;;;;15.20;8.10;;;0.50;91.40;;;;;;5066317;28;20082;-51
2022/11/18 12:07:38;;;;;;;;;;;0.50;91.10;;;;;;5069376;28;20036;-51
2022/11/18 12:10:26;;;;;;;11.45;7.18;;;0.40;89.30;;;;;;5050359;28;19973;-49
2022/11/18 12:13:23;;;;;;;12.57;7.30;;;0.40;88.90;;;;;;5068713;28;20066;-49
2022/11/18 12:16:14;;;;;;;12.38;8.05;;;0.30;89.10;;;;;;5056869;28;20073;-49
2022/11/18 12:19:10;;;;;;;11.60;7.30;;;0.20;90.00;;;;;;5028641;28;20033;-51
2022/11/18 12:21:44;;;;;;;11.48;7.10;;;0.20;91.10;;;;;;5042856;28;20551;-50
2022/11/18 12:24:21;;;;;;;9.65;6.78;;;0.20;90.50;;;;;;5068048;28;20653;-51
2022/11/18 12:26:48;;;;;;;12.10;7.55;;;0.20;90.50;;;;;;5049515;28;20503;-52
2022/11/18 12:29:25;;;;;;;11.52;6.85;;;0.20;90.80;;;;;;5068750;28;20012;-51
2022/11/18 12:31:55;;;;;;;11.38;7.95;;;0.20;90.40;;;;;;5045024;28;20529;-54
2022/11/18 12:34:37;;;;;;;12.13;7.57;;;0.20;90.70;;;;;;5067744;28;20024;-51
2022/11/18 12:37:32;;;;;;;10.65;7.00;;;0.20;91.30;;;;;;5046345;28;20059;-52
2022/11/18 12:39:58;;;;;;;10.48;7.13;;;0.40;91.60;;;;;;5023890;28;20041;-53
2022/11/18 12:45:41;;;;;;;9.57;6.57;;;0.50;91.00;;;;;;5028603;28;20551;-51
2022/11/18 12:48:30;;;;;;;11.32;6.95;;;0.50;91.00;;;;;;5051616;28;20106;-49
2022/11/18 12:51:15;;;;;;;11.00;6.88;;;0.50;91.00;;;;;;5072891;28;20033;-52
2022/11/18 12:53:42;;;;;;;9.77;6.63;;;0.50;90.40;;;;;;5075450;28;20107;-53
2022/11/18 12:56:17;;;;;;;10.00;6.82;;;0.50;90.60;;;;;;5055441;28;20032;-47
2022/11/18 12:58:47;;;;;;;10.55;7.07;;;0.50;90.50;;;;;;5075222;28;20105;-47
2022/11/18 13:01:17;;;;;;;10.18;6.72;;;0.40;88.80;;;;;;5056186;28;20028;-51
2022/11/18 13:03:43;;;;;;;9.68;7.07;;;0.40;90.20;;;;;;5073789;28;20127;-52
2022/11/18 13:06:23;;;;;;;10.00;6.25;;;0.40;88.60;;;;;;5055544;28;20155;-52
2022/11/18 13:09:00;;;;;;;8.48;5.90;;;0.40;90.90;;;;;;5075089;28;20021;-51